Time;durP1;ratioP1;P1;durP2;ratioP2;P2;SDS_P1;SDS_P2;PMS_P1;PMS_P2;Temp;Humidity;BMP_temperature;BMP_pressure;BME280_temperature;BME280_humidity;BME280_pressure;Samples;Min_cycle;Max_cycle;Signal;HPM_P1;HPM_P2
2024/03/24 00:01:33;;;;;;;0.90;0.40;;;9.00;96.80;;;;;;5052086;28;20594;-79
2024/03/24 00:03:59;;;;;;;1.98;0.70;;;8.90;96.70;;;;;;5051359;28;20060;-78
2024/03/24 00:06:24;;;;;;;1.75;0.50;;;8.80;96.90;;;;;;5051571;28;20123;-79
2024/03/24 00:08:51;;;;;;;0.75;0.20;;;8.90;96.40;;;;;;5052695;28;20223;-78
2024/03/24 00:11:17;;;;;;;0.82;0.30;;;9.00;95.90;;;;;;5050500;28;20082;-77
2024/03/24 00:13:42;;;;;;;0.73;0.30;;;9.00;96.60;;;;;;5050726;28;20167;-79
2024/03/24 00:16:08;;;;;;;1.83;0.55;;;8.90;96.00;;;;;;5053101;28;20041;-79
2024/03/24 00:18:34;;;;;;;1.90;0.60;;;9.00;96.10;;;;;;5055014;28;20032;-80
2024/03/24 00:20:59;;;;;;;0.70;0.30;;;8.80;96.50;;;;;;5055300;28;20033;-80
2024/03/24 00:23:25;;;;;;;1.52;0.50;;;8.80;96.40;;;;;;5055469;28;20472;-80
2024/03/24 00:25:51;;;;;;;1.08;0.47;;;8.70;96.70;;;;;;5055219;28;20036;-80
2024/03/24 00:28:16;;;;;;;0.82;0.50;;;8.70;96.80;;;;;;5056924;28;20085;-80
2024/03/24 00:30:42;;;;;;;1.35;0.43;;;8.70;96.90;;;;;;5054135;28;20127;-80
2024/03/24 00:33:07;;;;;;;1.00;0.40;;;8.60;97.00;;;;;;5054094;28;20103;-80
2024/03/24 00:35:33;;;;;;;1.30;0.50;;;8.50;97.30;;;;;;5057064;28;20036;-80
2024/03/24 00:37:59;;;;;;;2.80;0.52;;;8.50;96.70;;;;;;5054873;28;20498;-79
2024/03/24 00:40:25;;;;;;;2.47;0.90;;;8.50;96.50;;;;;;5055771;28;20028;-79
2024/03/24 00:42:51;;;;;;;2.38;0.45;;;8.50;96.50;;;;;;5054244;28;20043;-79
2024/03/24 00:45:17;;;;;;;0.57;0.35;;;8.50;96.80;;;;;;5054660;28;20040;-79
2024/03/24 00:47:42;;;;;;;1.80;0.55;;;8.30;97.10;;;;;;5056732;28;20052;-79
2024/03/24 00:50:09;;;;;;;1.63;0.60;;;8.30;97.00;;;;;;5054985;28;20505;-79
2024/03/24 00:52:35;;;;;;;3.13;0.60;;;8.30;97.00;;;;;;5054076;28;21905;-79
2024/03/24 00:55:01;;;;;;;1.67;0.50;;;8.30;96.90;;;;;;5056337;28;21297;-79
2024/03/24 00:57:26;;;;;;;2.60;0.50;;;8.40;97.00;;;;;;5054402;28;20039;-79
2024/03/24 00:59:52;;;;;;;0.80;0.43;;;8.40;96.80;;;;;;5053817;28;20068;-79
2024/03/24 01:02:18;;;;;;;1.33;0.43;;;8.40;96.70;;;;;;5055204;28;20066;-79
2024/03/24 01:04:43;;;;;;;1.17;0.65;;;8.40;96.90;;;;;;5054808;28;20137;-79
2024/03/24 01:07:09;;;;;;;1.63;0.43;;;8.20;96.90;;;;;;5055731;28;20101;-79
2024/03/24 01:09:35;;;;;;;1.38;0.50;;;7.90;97.50;;;;;;5055997;28;20036;-79
2024/03/24 01:12:01;;;;;;;0.30;0.30;;;8.00;97.20;;;;;;5054438;28;20108;-79
2024/03/24 01:14:26;;;;;;;0.63;0.30;;;8.40;96.20;;;;;;5054159;28;20437;-79
2024/03/24 01:16:52;;;;;;;2.10;0.70;;;8.50;96.40;;;;;;5055866;28;20039;-78
2024/03/24 01:19:18;;;;;;;2.17;0.50;;;8.30;96.90;;;;;;5054926;28;20653;-78
2024/03/24 01:21:44;;;;;;;0.40;0.22;;;8.30;96.40;;;;;;5051902;28;20071;-78
2024/03/24 01:24:10;;;;;;;1.40;0.60;;;8.10;96.60;;;;;;5054421;28;20029;-78
2024/03/24 01:26:35;;;;;;;1.05;0.43;;;8.20;96.40;;;;;;5054547;28;20047;-78
2024/03/24 01:29:01;;;;;;;1.05;0.40;;;8.20;97.00;;;;;;5055718;28;20040;-78
2024/03/24 01:31:27;;;;;;;1.02;0.50;;;8.20;96.20;;;;;;5054598;28;20455;-78
2024/03/24 01:33:53;;;;;;;1.25;0.40;;;8.30;95.80;;;;;;5054439;28;20107;-78
2024/03/24 01:36:19;;;;;;;0.77;0.40;;;8.40;96.10;;;;;;5056438;28;20036;-78
2024/03/24 01:38:44;;;;;;;2.38;0.60;;;8.30;96.20;;;;;;5053997;28;20036;-78
2024/03/24 01:41:10;;;;;;;1.92;0.77;;;8.10;96.30;;;;;;5055828;28;20115;-78
2024/03/24 01:43:36;;;;;;;2.72;0.60;;;8.10;96.40;;;;;;5054823;28;20127;-78
2024/03/24 01:46:03;;;;;;;2.53;0.60;;;7.90;96.60;;;;;;5054076;28;20040;-78
2024/03/24 01:48:29;;;;;;;1.17;0.45;;;7.90;96.40;;;;;;5055003;28;20616;-79
2024/03/24 01:50:55;;;;;;;1.45;0.55;;;7.90;96.50;;;;;;5052503;28;20044;-78
2024/03/24 01:53:21;;;;;;;3.35;1.15;;;7.90;96.40;;;;;;5052675;28;20037;-78
2024/03/24 01:55:47;;;;;;;1.15;0.50;;;7.80;96.40;;;;;;5054666;28;20031;-78
2024/03/24 01:58:13;;;;;;;2.13;0.60;;;7.70;96.50;;;;;;5055534;28;20028;-80
2024/03/24 02:00:39;;;;;;;1.35;0.52;;;7.60;96.70;;;;;;5052771;28;20033;-80
2024/03/24 02:03:04;;;;;;;1.70;0.43;;;7.50;96.50;;;;;;5049934;28;20032;-80
2024/03/24 02:05:30;;;;;;;1.75;0.77;;;7.40;96.70;;;;;;5053265;28;20032;-80
2024/03/24 02:07:56;;;;;;;1.45;0.60;;;7.60;96.40;;;;;;5053561;28;20447;-80
2024/03/24 02:10:28;;;;;;;1.05;0.70;;;7.50;96.50;;;;;;5055260;28;20036;-80
2024/03/24 02:12:54;;;;;;;0.75;0.30;;;7.30;96.90;;;;;;5054744;28;20612;-80
2024/03/24 02:15:20;;;;;;;3.63;0.68;;;7.50;96.30;;;;;;5053765;28;20032;-80
2024/03/24 02:17:46;;;;;;;2.33;0.50;;;7.30;96.80;;;;;;5052636;28;20039;-81
2024/03/24 02:20:15;;;;;;;1.17;0.43;;;7.30;96.40;;;;;;5054741;28;20043;-80
2024/03/24 02:22:42;;;;;;;1.42;0.40;;;7.40;96.30;;;;;;5049996;28;20033;-80
2024/03/24 02:25:08;;;;;;;1.25;0.55;;;7.50;96.00;;;;;;5053986;28;20466;-80
2024/03/24 02:27:35;;;;;;;1.55;0.63;;;7.60;95.60;;;;;;5055244;28;20064;-81
2024/03/24 02:30:01;;;;;;;1.23;0.50;;;7.40;96.20;;;;;;5052815;28;20045;-80
2024/03/24 02:32:26;;;;;;;2.47;0.40;;;7.20;96.00;;;;;;5054093;28;20113;-80
2024/03/24 02:34:53;;;;;;;1.25;0.55;;;7.30;96.00;;;;;;5053169;28;20032;-80
2024/03/24 02:37:19;;;;;;;1.38;0.40;;;7.20;95.80;;;;;;5053136;28;20140;-78
2024/03/24 02:39:45;;;;;;;2.65;0.75;;;7.10;95.90;;;;;;5054471;28;20036;-78
2024/03/24 02:42:11;;;;;;;2.13;0.73;;;7.30;95.80;;;;;;5056592;28;20039;-78
2024/03/24 02:44:38;;;;;;;1.02;0.50;;;7.30;95.60;;;;;;5051005;28;20444;-78
2024/03/24 02:47:04;;;;;;;1.20;0.43;;;7.40;95.60;;;;;;5052457;28;20032;-78
2024/03/24 02:49:30;;;;;;;0.88;0.50;;;7.40;95.60;;;;;;5053597;28;20123;-78
2024/03/24 02:51:56;;;;;;;2.10;0.60;;;7.40;95.80;;;;;;5053501;28;20954;-78
2024/03/24 02:54:22;;;;;;;0.88;0.30;;;7.50;95.70;;;;;;5054086;28;21257;-78
2024/03/24 02:56:47;;;;;;;1.23;0.50;;;7.50;95.60;;;;;;5054397;28;20133;-78
2024/03/24 02:59:13;;;;;;;2.17;0.52;;;7.30;96.00;;;;;;5052688;28;20819;-78
2024/03/24 03:01:39;;;;;;;2.45;0.75;;;7.20;95.90;;;;;;5053257;28;21206;-79
2024/03/24 03:04:04;;;;;;;2.38;0.47;;;7.50;95.90;;;;;;5054042;28;20036;-78
2024/03/24 03:06:30;;;;;;;1.95;0.43;;;7.30;95.80;;;;;;5057803;28;20113;-80
2024/03/24 03:08:56;;;;;;;0.98;0.50;;;6.90;96.30;;;;;;5057389;28;20033;-80
2024/03/24 03:11:22;;;;;;;1.50;0.47;;;6.60;96.40;;;;;;5058781;28;20055;-80
2024/03/24 03:13:48;;;;;;;1.33;0.47;;;6.70;97.00;;;;;;5053655;28;20040;-80
2024/03/24 03:16:13;;;;;;;0.95;0.50;;;6.80;96.80;;;;;;5058751;28;20055;-80
2024/03/24 03:18:39;;;;;;;1.20;0.50;;;6.60;96.80;;;;;;5056651;28;20036;-80
2024/03/24 03:21:05;;;;;;;1.10;0.35;;;6.80;96.90;;;;;;5054971;28;20052;-80
2024/03/24 03:23:30;;;;;;;1.70;0.45;;;6.60;96.60;;;;;;5058647;28;20089;-80
2024/03/24 03:25:56;;;;;;;1.30;0.50;;;6.50;96.70;;;;;;5057184;28;20032;-80
2024/03/24 03:28:21;;;;;;;0.95;0.40;;;6.60;96.70;;;;;;5055940;28;20032;-80
2024/03/24 03:30:47;;;;;;;1.67;0.60;;;6.40;96.80;;;;;;5057488;28;20033;-79
2024/03/24 03:33:13;;;;;;;1.45;0.47;;;6.70;96.60;;;;;;5057050;28;20434;-79
2024/03/24 03:35:39;;;;;;;2.35;0.73;;;6.60;96.90;;;;;;5056297;28;20040;-80
2024/03/24 03:38:05;;;;;;;1.45;0.60;;;6.80;97.50;;;;;;5058121;28;20090;-80
2024/03/24 03:40:30;;;;;;;1.45;0.50;;;6.70;96.90;;;;;;5056217;28;20029;-80
2024/03/24 03:42:56;;;;;;;0.93;0.52;;;6.40;96.70;;;;;;5055462;28;21461;-80
2024/03/24 03:45:24;;;;;;;1.50;0.68;;;6.20;97.20;;;;;;5054383;28;20071;-80
2024/03/24 03:47:50;;;;;;;1.25;0.40;;;6.40;97.30;;;;;;5057127;28;20398;-79
2024/03/24 03:50:17;;;;;;;2.00;0.70;;;6.30;97.40;;;;;;5057799;28;20041;-78
2024/03/24 03:52:50;;;;;;;1.83;0.50;;;6.40;97.40;;;;;;5056125;28;20040;-79
2024/03/24 03:55:16;;;;;;;0.68;0.40;;;6.30;97.00;;;;;;5057226;28;20028;-79
2024/03/24 03:57:43;;;;;;;2.85;0.90;;;6.20;97.10;;;;;;5056108;28;20032;-79
2024/03/24 04:00:12;;;;;;;1.08;0.68;;;6.30;97.30;;;;;;5056833;28;20102;-79
2024/03/24 04:02:38;;;;;;;1.92;0.60;;;6.50;97.20;;;;;;5052977;28;20123;-77
2024/03/24 04:05:07;;;;;;;0.70;0.38;;;6.40;97.00;;;;;;5051568;28;20029;-77
2024/03/24 04:07:36;;;;;;;1.88;0.63;;;6.40;96.90;;;;;;5052818;28;20081;-77
2024/03/24 04:10:04;;;;;;;2.38;0.60;;;6.40;97.20;;;;;;5051269;28;20172;-77
2024/03/24 04:12:30;;;;;;;1.45;0.52;;;6.60;97.20;;;;;;5049812;28;20048;-78
2024/03/24 04:14:58;;;;;;;3.72;0.73;;;6.70;96.80;;;;;;5050193;28;20043;-78
2024/03/24 04:17:23;;;;;;;2.20;0.50;;;6.80;96.60;;;;;;5051170;28;20156;-78
2024/03/24 04:19:49;;;;;;;2.53;0.57;;;6.80;96.60;;;;;;5048816;28;20082;-77
2024/03/24 04:22:14;;;;;;;2.17;0.60;;;6.50;96.70;;;;;;5049884;28;20031;-77
2024/03/24 04:24:40;;;;;;;1.88;0.73;;;6.60;96.60;;;;;;5050567;28;20024;-77
2024/03/24 04:27:06;;;;;;;1.98;0.75;;;6.60;96.70;;;;;;5048675;28;20028;-80
2024/03/24 04:29:31;;;;;;;1.30;0.50;;;6.50;96.70;;;;;;5050317;28;20033;-77
2024/03/24 04:31:57;;;;;;;1.75;0.77;;;6.50;96.80;;;;;;5043746;28;20434;-77
2024/03/24 04:34:22;;;;;;;0.88;0.40;;;6.50;97.10;;;;;;5039968;28;20040;-78
2024/03/24 04:36:48;;;;;;;1.85;0.50;;;6.50;96.70;;;;;;5050388;28;20036;-78
2024/03/24 04:39:19;;;;;;;1.95;1.02;;;6.40;97.30;;;;;;5052865;28;20037;-77
2024/03/24 04:41:48;;;;;;;2.97;0.60;;;6.30;96.60;;;;;;5050512;28;20127;-77
2024/03/24 04:44:14;;;;;;;0.60;0.32;;;6.30;97.00;;;;;;5050282;28;20055;-77
2024/03/24 04:46:39;;;;;;;2.47;0.68;;;6.00;96.50;;;;;;5050343;28;20115;-78
2024/03/24 04:49:05;;;;;;;0.70;0.30;;;6.00;96.70;;;;;;5051811;28;20093;-78
2024/03/24 04:51:32;;;;;;;2.08;0.70;;;6.00;96.90;;;;;;5047316;28;20976;-78
2024/03/24 04:53:58;;;;;;;0.93;0.32;;;5.90;97.60;;;;;;5048226;28;20393;-78
2024/03/24 04:56:24;;;;;;;1.85;0.75;;;5.90;98.10;;;;;;5052849;28;20028;-78
2024/03/24 04:58:50;;;;;;;2.00;0.40;;;5.70;98.70;;;;;;5051062;28;20532;-78
2024/03/24 05:01:16;;;;;;;10.63;0.68;;;5.40;97.60;;;;;;5049145;28;20490;-77
2024/03/24 05:03:42;;;;;;;2.78;0.52;;;5.10;98.10;;;;;;5051289;28;20363;-77
2024/03/24 05:06:07;;;;;;;1.42;0.57;;;5.10;98.00;;;;;;5049056;28;20037;-77
2024/03/24 05:08:36;;;;;;;1.60;0.70;;;5.00;98.20;;;;;;5047971;28;20040;-77
2024/03/24 05:11:02;;;;;;;2.72;0.60;;;4.90;98.00;;;;;;5048159;28;20054;-80
2024/03/24 05:13:28;;;;;;;7.30;0.70;;;5.00;98.30;;;;;;5046073;28;20070;-80
2024/03/24 05:15:54;;;;;;;1.35;0.40;;;5.10;97.80;;;;;;5047345;28;20111;-80
2024/03/24 05:18:21;;;;;;;1.10;0.40;;;5.30;98.20;;;;;;5048478;28;20063;-80
2024/03/24 05:20:47;;;;;;;1.23;0.45;;;5.20;98.10;;;;;;5047224;28;20035;-78
2024/03/24 05:23:19;;;;;;;1.88;0.60;;;5.00;97.80;;;;;;5044988;28;20021;-77
2024/03/24 05:25:54;;;;;;;1.13;0.45;;;5.00;97.90;;;;;;5048282;28;20047;-78
2024/03/24 05:28:20;;;;;;;1.75;0.60;;;4.90;97.60;;;;;;5051055;28;20028;-78
2024/03/24 05:30:47;;;;;;;1.33;0.55;;;5.00;97.70;;;;;;5050506;28;20210;-78
2024/03/24 05:33:13;;;;;;;4.25;1.10;;;4.90;97.70;;;;;;5048872;28;20035;-78
2024/03/24 05:35:39;;;;;;;0.85;0.50;;;5.00;97.90;;;;;;5051904;28;20036;-78
2024/03/24 05:38:05;;;;;;;1.77;0.73;;;5.00;97.80;;;;;;5051064;28;20616;-77
2024/03/24 05:40:30;;;;;;;2.78;0.80;;;4.90;97.70;;;;;;5049580;28;20036;-77
2024/03/24 05:42:56;;;;;;;1.75;0.70;;;4.90;98.30;;;;;;5051628;28;20040;-77
2024/03/24 05:45:22;;;;;;;1.55;0.60;;;5.20;98.00;;;;;;5050105;28;20059;-77
2024/03/24 05:47:51;;;;;;;11.07;3.95;;;5.10;98.00;;;;;;5048091;28;20637;-79
2024/03/24 05:50:16;;;;;;;4.07;1.67;;;5.40;98.50;;;;;;5047183;28;20131;-78
2024/03/24 05:52:42;;;;;;;2.50;1.17;;;5.40;98.60;;;;;;5046405;28;21382;-79
2024/03/24 05:55:12;;;;;;;3.35;1.15;;;5.50;98.70;;;;;;5047699;28;20399;-78
2024/03/24 05:57:38;;;;;;;1.08;0.52;;;5.40;98.10;;;;;;5049060;28;20037;-77
2024/03/24 06:00:04;;;;;;;22.05;15.35;;;5.70;98.30;;;;;;5048450;28;20097;-78
2024/03/24 06:02:30;;;;;;;8.73;5.07;;;5.50;98.80;;;;;;5049779;28;20046;-78
2024/03/24 06:04:56;;;;;;;5.32;2.75;;;5.60;98.90;;;;;;5048494;28;20043;-77
2024/03/24 06:07:24;;;;;;;3.95;2.08;;;5.80;98.60;;;;;;5046971;28;20382;-79
2024/03/24 06:09:51;;;;;;;4.78;1.83;;;5.90;99.10;;;;;;5045664;28;20142;-79
2024/03/24 06:12:17;;;;;;;5.15;1.02;;;5.90;99.00;;;;;;5047743;28;20355;-79
2024/03/24 06:14:42;;;;;;;1.25;0.68;;;5.90;99.50;;;;;;5046330;28;20047;-80
2024/03/24 06:17:08;;;;;;;2.92;0.73;;;5.80;99.40;;;;;;5046361;28;20051;-80
2024/03/24 06:19:34;;;;;;;2.83;0.80;;;5.90;98.80;;;;;;5045465;28;20056;-80
2024/03/24 06:21:59;;;;;;;1.52;0.63;;;5.80;99.60;;;;;;5046092;28;20021;-80
2024/03/24 06:24:25;;;;;;;0.80;0.50;;;5.80;99.90;;;;;;5047141;28;20051;-80
2024/03/24 06:26:51;;;;;;;2.40;0.60;;;5.90;99.90;;;;;;5048655;28;20039;-80
2024/03/24 06:29:17;;;;;;;2.85;0.50;;;5.80;98.90;;;;;;5046957;28;20033;-80
2024/03/24 06:31:42;;;;;;;1.23;0.60;;;5.80;99.00;;;;;;5045488;28;21687;-79
2024/03/24 06:34:08;;;;;;;1.75;0.60;;;5.80;99.00;;;;;;5048224;28;20899;-79
2024/03/24 06:36:41;;;;;;;2.45;0.50;;;5.80;99.30;;;;;;5045869;28;20033;-80
2024/03/24 06:39:08;;;;;;;3.38;0.70;;;6.00;99.90;;;;;;5047634;28;20032;-80
2024/03/24 06:41:41;;;;;;;0.68;0.28;;;5.90;99.30;;;;;;5050065;28;20028;-80
2024/03/24 06:44:17;;;;;;;2.25;0.80;;;6.20;99.20;;;;;;5050525;28;20058;-79
2024/03/24 06:46:46;;;;;;;2.08;0.50;;;6.30;99.90;;;;;;5050613;28;20111;-80
2024/03/24 06:49:12;;;;;;;2.30;0.60;;;6.40;99.90;;;;;;5050615;28;20540;-80
2024/03/24 06:51:37;;;;;;;0.90;0.47;;;6.60;99.90;;;;;;5050134;28;21330;-80
2024/03/24 06:54:03;;;;;;;2.28;0.40;;;6.80;99.70;;;;;;5050822;28;20036;-80
2024/03/24 06:56:29;;;;;;;2.53;0.80;;;6.90;99.40;;;;;;5051655;28;20029;-79
2024/03/24 06:58:55;;;;;;;2.35;0.68;;;6.90;98.70;;;;;;5049356;28;20387;-80
2024/03/24 07:01:21;;;;;;;1.40;0.80;;;7.10;98.60;;;;;;5048666;28;20039;-80
2024/03/24 07:03:47;;;;;;;3.25;0.63;;;7.20;99.00;;;;;;5050608;28;20123;-79
2024/03/24 07:06:15;;;;;;;1.98;0.47;;;7.20;99.50;;;;;;5057914;28;20600;-82
2024/03/24 07:08:41;;;;;;;1.38;0.70;;;7.20;99.40;;;;;;5055070;28;20064;-80
2024/03/24 07:11:08;;;;;;;1.65;0.63;;;7.30;98.50;;;;;;5049166;28;20163;-80
2024/03/24 07:13:33;;;;;;;1.75;0.60;;;7.20;97.90;;;;;;5049879;28;20695;-80
2024/03/24 07:15:59;;;;;;;1.02;0.45;;;7.20;97.90;;;;;;5050528;28;20036;-82
2024/03/24 07:18:25;;;;;;;0.90;0.57;;;7.30;97.80;;;;;;5050730;28;20440;-83
2024/03/24 07:21:04;;;;;;;1.55;0.35;;;7.50;97.70;;;;;;5048767;28;20071;-84
2024/03/24 07:23:41;;;;;;;0.40;0.30;;;7.60;98.20;;;;;;5050232;28;20637;-81
2024/03/24 07:26:07;;;;;;;1.67;0.80;;;7.60;98.10;;;;;;5050384;28;20040;-81
2024/03/24 07:28:32;;;;;;;4.18;0.80;;;7.50;97.40;;;;;;5049555;28;20028;-80
2024/03/24 07:30:58;;;;;;;0.90;0.40;;;7.60;97.80;;;;;;5053476;28;20032;-80
2024/03/24 07:33:24;;;;;;;2.58;0.80;;;7.60;98.10;;;;;;5050503;28;20025;-78
2024/03/24 07:35:50;;;;;;;2.17;1.10;;;7.50;98.60;;;;;;5049640;28;20041;-78
2024/03/24 07:38:15;;;;;;;5.28;1.08;;;7.60;99.20;;;;;;5048940;28;20124;-79
2024/03/24 07:40:43;;;;;;;3.10;1.08;;;7.60;99.50;;;;;;5044607;28;20033;-78
2024/03/24 07:43:10;;;;;;;2.85;1.00;;;7.70;99.40;;;;;;5046754;28;20778;-78
2024/03/24 07:45:36;;;;;;;2.92;1.00;;;7.70;99.40;;;;;;5047591;28;20057;-78
2024/03/24 07:48:02;;;;;;;2.25;0.90;;;7.40;99.20;;;;;;5048832;28;20040;-79
2024/03/24 07:50:28;;;;;;;2.92;1.08;;;7.40;98.70;;;;;;5049705;28;20549;-77
2024/03/24 07:52:53;;;;;;;2.08;0.60;;;7.50;98.40;;;;;;5048844;28;20028;-79
2024/03/24 07:55:19;;;;;;;2.78;0.90;;;7.30;98.20;;;;;;5050168;28;20036;-79
2024/03/24 07:57:45;;;;;;;1.27;0.60;;;7.40;98.00;;;;;;5048514;28;20025;-77
2024/03/24 08:00:12;;;;;;;2.50;0.90;;;7.40;98.10;;;;;;5050542;28;20028;-79
2024/03/24 08:02:38;;;;;;;1.13;0.52;;;7.60;98.40;;;;;;5049382;28;20040;-78
2024/03/24 08:05:03;;;;;;;1.63;0.70;;;7.50;98.40;;;;;;5047309;28;20881;-77
2024/03/24 08:07:29;;;;;;;2.42;0.70;;;7.80;97.80;;;;;;5047760;28;20033;-79
2024/03/24 08:09:55;;;;;;;1.23;0.60;;;7.60;97.50;;;;;;5050113;28;20135;-78
2024/03/24 08:12:20;;;;;;;1.90;0.63;;;7.70;97.80;;;;;;5049872;28;20378;-78
2024/03/24 08:14:46;;;;;;;5.43;2.55;;;7.70;97.20;;;;;;5052114;28;20035;-77
2024/03/24 08:17:11;;;;;;;3.60;1.40;;;8.00;98.10;;;;;;5051253;28;20031;-79
2024/03/24 08:19:37;;;;;;;1.73;0.93;;;8.20;96.90;;;;;;5051605;28;20039;-79
2024/03/24 08:22:03;;;;;;;2.03;0.80;;;8.10;96.50;;;;;;5053926;28;20100;-79
2024/03/24 08:24:28;;;;;;;1.08;0.52;;;8.10;96.50;;;;;;5050302;28;20047;-79
2024/03/24 08:26:54;;;;;;;0.50;0.50;;;8.10;97.40;;;;;;5050500;28;20032;-79
2024/03/24 08:29:19;;;;;;;1.98;1.02;;;8.00;96.80;;;;;;5052911;28;20086;-79
2024/03/24 08:31:45;;;;;;;2.85;0.80;;;8.10;96.80;;;;;;5052496;28;20045;-79
2024/03/24 08:34:10;;;;;;;0.77;0.40;;;8.10;97.40;;;;;;5051316;28;20050;-79
2024/03/24 08:36:36;;;;;;;2.42;0.50;;;8.20;96.90;;;;;;5054091;28;20036;-78
2024/03/24 08:39:02;;;;;;;2.78;0.70;;;8.30;96.90;;;;;;5051459;28;20483;-79
2024/03/24 08:41:28;;;;;;;3.08;0.82;;;8.40;96.60;;;;;;5052010;28;20048;-78
2024/03/24 08:43:55;;;;;;;2.08;0.65;;;8.40;96.10;;;;;;5051501;28;20433;-77
2024/03/24 08:46:21;;;;;;;4.55;0.80;;;8.60;96.60;;;;;;5052583;28;20029;-77
2024/03/24 08:48:48;;;;;;;1.48;0.32;;;8.70;96.30;;;;;;5053370;28;20578;-77
2024/03/24 08:51:14;;;;;;;2.28;0.70;;;8.80;96.10;;;;;;5051657;28;20044;-77
2024/03/24 08:53:40;;;;;;;1.60;0.63;;;8.90;96.30;;;;;;5049920;28;20229;-78
2024/03/24 08:56:06;;;;;;;1.95;0.60;;;9.00;96.10;;;;;;5050375;28;20040;-78
2024/03/24 08:58:32;;;;;;;2.45;0.50;;;9.20;95.80;;;;;;5050821;28;20605;-78
2024/03/24 09:00:57;;;;;;;1.90;0.57;;;9.20;94.60;;;;;;5051825;28;20037;-79
2024/03/24 09:03:23;;;;;;;1.00;0.43;;;9.30;95.20;;;;;;5050182;28;20020;-77
2024/03/24 09:05:48;;;;;;;1.80;0.55;;;9.40;94.50;;;;;;5050722;28;20097;-78
2024/03/24 09:08:14;;;;;;;1.77;0.80;;;9.40;94.50;;;;;;5051733;28;20045;-80
2024/03/24 09:10:40;;;;;;;2.38;0.73;;;9.50;94.70;;;;;;5052355;28;20089;-80
2024/03/24 09:13:06;;;;;;;1.23;0.63;;;9.50;94.40;;;;;;5049312;28;20624;-80
2024/03/24 09:15:31;;;;;;;1.90;0.70;;;9.80;94.90;;;;;;5051314;28;20055;-80
2024/03/24 09:17:57;;;;;;;1.20;0.60;;;10.00;94.50;;;;;;5051602;28;20032;-80
2024/03/24 09:20:23;;;;;;;0.82;0.50;;;10.00;95.10;;;;;;5050833;28;20040;-80
2024/03/24 09:22:49;;;;;;;0.85;0.40;;;12.50;94.10;;;;;;5050048;28;20044;-80
2024/03/24 09:25:14;;;;;;;1.10;0.43;;;15.80;90.60;;;;;;5055999;28;20028;-80
2024/03/24 09:27:40;;;;;;;3.55;1.85;;;15.00;88.30;;;;;;5055757;28;20040;-80
2024/03/24 09:30:06;;;;;;;3.47;1.35;;;16.70;87.40;;;;;;5056062;28;20036;-80
2024/03/24 09:32:32;;;;;;;3.13;0.85;;;13.60;90.20;;;;;;5055309;28;20067;-81
2024/03/24 09:34:58;;;;;;;5.05;1.45;;;14.30;88.40;;;;;;5054912;28;20655;-80
2024/03/24 09:37:24;;;;;;;6.88;1.23;;;12.10;89.70;;;;;;5055081;28;20068;-80
2024/03/24 09:39:50;;;;;;;1.23;0.50;;;13.20;88.10;;;;;;5056237;28;20024;-79
2024/03/24 09:42:19;;;;;;;3.65;1.50;;;12.50;90.80;;;;;;5055388;28;20039;-78
2024/03/24 09:44:46;;;;;;;3.03;0.90;;;13.20;89.40;;;;;;5055029;28;20670;-78
2024/03/24 09:47:12;;;;;;;2.55;0.60;;;13.30;88.70;;;;;;5055783;28;20067;-80
2024/03/24 09:49:40;;;;;;;2.28;0.63;;;12.20;88.20;;;;;;5055897;28;20056;-80
2024/03/24 09:52:07;;;;;;;0.75;0.40;;;11.90;90.80;;;;;;5055917;28;20496;-79
2024/03/24 09:54:33;;;;;;;1.50;0.60;;;11.10;91.50;;;;;;5054204;28;20498;-78
2024/03/24 09:56:59;;;;;;;3.70;0.63;;;10.80;91.90;;;;;;5055541;28;20036;-78
2024/03/24 09:59:28;;;;;;;3.67;1.42;;;10.50;91.40;;;;;;5055316;28;20679;-78
2024/03/24 10:01:54;;;;;;;1.27;0.63;;;10.40;91.00;;;;;;5054521;28;20119;-80
2024/03/24 10:04:24;;;;;;;1.58;0.73;;;10.60;92.40;;;;;;5054283;28;20032;-80
2024/03/24 10:06:49;;;;;;;2.38;0.43;;;10.30;92.00;;;;;;5054717;28;20033;-80
2024/03/24 10:09:15;;;;;;;1.23;0.57;;;10.30;93.10;;;;;;5054805;28;20039;-80
2024/03/24 10:11:41;;;;;;;1.35;0.65;;;10.20;93.20;;;;;;5055522;28;20040;-80
2024/03/24 10:14:09;;;;;;;3.22;0.70;;;10.20;93.40;;;;;;5054062;28;20036;-80
2024/03/24 10:16:35;;;;;;;1.58;0.65;;;10.30;93.30;;;;;;5053874;28;20093;-80
2024/03/24 10:19:11;;;;;;;1.38;0.63;;;10.40;93.40;;;;;;5054593;28;20044;-78
2024/03/24 10:21:38;;;;;;;2.83;0.95;;;10.30;92.50;;;;;;5055710;28;20038;-78
2024/03/24 10:24:06;;;;;;;3.13;1.13;;;10.30;93.00;;;;;;5047365;28;20493;-78
2024/03/24 10:26:36;;;;;;;0.80;0.43;;;10.40;92.60;;;;;;5051667;28;20179;-78
2024/03/24 10:29:04;;;;;;;1.45;0.38;;;10.50;91.80;;;;;;5050834;28;20056;-78
2024/03/24 10:31:31;;;;;;;1.75;0.90;;;10.60;91.30;;;;;;5050371;28;20135;-78
2024/03/24 10:33:57;;;;;;;3.92;2.05;;;10.40;91.40;;;;;;5049578;28;20504;-78
2024/03/24 10:36:22;;;;;;;2.90;1.08;;;10.60;91.90;;;;;;5049191;28;20043;-80
2024/03/24 10:38:48;;;;;;;1.45;0.60;;;10.80;91.90;;;;;;5049975;28;20039;-79
2024/03/24 10:41:15;;;;;;;1.73;0.77;;;10.80;91.50;;;;;;5050536;28;20041;-79
2024/03/24 10:43:46;;;;;;;0.70;0.35;;;10.80;91.50;;;;;;5048598;28;20495;-79
2024/03/24 10:46:13;;;;;;;1.67;0.80;;;10.80;91.80;;;;;;5048852;28;20028;-79
2024/03/24 10:48:45;;;;;;;2.20;0.70;;;10.90;92.00;;;;;;5050436;28;20032;-79
2024/03/24 10:51:14;;;;;;;1.40;0.60;;;11.10;91.50;;;;;;5050591;28;20051;-79
2024/03/24 10:53:42;;;;;;;1.35;0.47;;;11.30;92.00;;;;;;5048769;28;20166;-79
2024/03/24 10:56:10;;;;;;;1.67;0.65;;;11.40;91.50;;;;;;5049660;28;20048;-79
2024/03/24 10:58:37;;;;;;;1.75;0.50;;;11.10;90.70;;;;;;5050485;28;20051;-79
2024/03/24 11:01:03;;;;;;;1.30;0.60;;;11.20;91.50;;;;;;5048517;28;20039;-78
2024/03/24 11:03:29;;;;;;;2.72;0.45;;;11.50;91.50;;;;;;5046515;28;20547;-78
2024/03/24 11:05:56;;;;;;;0.98;0.50;;;11.50;91.00;;;;;;5051475;28;20028;-78
2024/03/24 11:08:23;;;;;;;2.13;0.77;;;11.80;91.20;;;;;;5049733;28;20550;-78
2024/03/24 11:10:53;;;;;;;0.70;0.60;;;11.60;91.30;;;;;;5050741;28;20052;-78
2024/03/24 11:13:27;;;;;;;1.42;0.60;;;11.70;91.00;;;;;;5049626;28;20659;-78
2024/03/24 11:15:53;;;;;;;1.50;0.60;;;12.00;90.60;;;;;;5049409;28;20037;-78
2024/03/24 11:18:26;;;;;;;2.33;0.75;;;12.50;91.20;;;;;;5048266;28;20033;-78
2024/03/24 11:20:54;;;;;;;1.98;0.50;;;12.70;90.80;;;;;;5050244;28;21089;-78
2024/03/24 11:23:32;;;;;;;1.58;0.60;;;12.80;90.30;;;;;;5048439;28;20560;-78
2024/03/24 11:26:00;;;;;;;2.20;0.70;;;12.70;90.10;;;;;;5052315;28;20044;-78
2024/03/24 11:28:49;;;;;;;1.92;1.02;;;12.70;90.00;;;;;;5052600;28;20409;-78
2024/03/24 11:31:20;;;;;;;4.03;0.68;;;12.70;90.20;;;;;;5052224;28;20048;-78
2024/03/24 11:34:10;;;;;;;1.23;0.57;;;12.80;90.40;;;;;;5052080;28;20043;-78
2024/03/24 11:36:39;;;;;;;1.08;0.47;;;13.10;89.00;;;;;;5052299;28;20036;-78
2024/03/24 11:39:06;;;;;;;1.38;0.60;;;13.50;88.70;;;;;;5053374;28;20127;-78
2024/03/24 11:41:32;;;;;;;1.23;0.47;;;13.50;89.80;;;;;;5052616;28;20510;-78
2024/03/24 11:43:59;;;;;;;1.52;0.63;;;13.70;89.80;;;;;;5052219;28;20113;-77
2024/03/24 11:46:31;;;;;;;1.27;0.52;;;13.60;89.30;;;;;;5052743;28;20430;-78
2024/03/24 11:48:58;;;;;;;2.20;0.50;;;13.20;85.50;;;;;;5054687;28;20522;-78
2024/03/24 11:51:28;;;;;;;8.88;0.93;;;13.10;86.30;;;;;;5051661;28;20032;-77
2024/03/24 11:53:54;;;;;;;1.88;0.50;;;13.10;87.00;;;;;;5052305;28;20040;-78
2024/03/24 11:56:21;;;;;;;1.77;0.60;;;13.10;87.50;;;;;;5052570;28;20094;-80
2024/03/24 11:58:52;;;;;;;2.65;0.80;;;12.90;85.20;;;;;;5051461;28;20626;-81
2024/03/24 12:01:18;;;;;;;1.83;0.75;;;13.10;88.80;;;;;;5052003;28;20134;-81
2024/03/24 12:03:44;;;;;;;2.95;0.73;;;12.90;87.90;;;;;;5052706;28;20056;-80
2024/03/24 12:06:13;;;;;;;3.75;0.90;;;12.90;89.00;;;;;;5052589;28;20101;-80
2024/03/24 12:08:40;;;;;;;4.07;2.20;;;12.80;87.80;;;;;;5051228;28;20131;-80
2024/03/24 12:11:06;;;;;;;5.32;2.42;;;13.00;89.40;;;;;;5052086;28;20131;-81
2024/03/24 12:13:32;;;;;;;1.90;1.10;;;12.70;85.60;;;;;;5051192;28;20040;-82
2024/03/24 12:15:58;;;;;;;18.38;10.25;;;12.60;87.70;;;;;;5049278;28;20078;-80
2024/03/24 12:18:24;;;;;;;8.57;4.22;;;12.80;88.50;;;;;;5049883;28;20039;-78
2024/03/24 12:20:50;;;;;;;7.68;4.75;;;12.80;90.40;;;;;;5049613;28;20216;-80
2024/03/24 12:23:16;;;;;;;6.30;2.17;;;12.90;88.60;;;;;;5048258;28;20036;-78
2024/03/24 12:25:45;;;;;;;2.30;0.75;;;12.90;87.50;;;;;;5050643;28;20108;-78
2024/03/24 12:28:17;;;;;;;3.05;1.13;;;13.00;88.90;;;;;;5048549;28;20117;-78
2024/03/24 12:30:56;;;;;;;1.75;0.65;;;12.90;88.30;;;;;;5048188;28;20041;-78
2024/03/24 12:33:24;;;;;;;1.85;0.68;;;12.80;88.40;;;;;;5049551;28;20028;-78
2024/03/24 12:35:51;;;;;;;2.53;0.93;;;12.80;89.60;;;;;;5049842;28;20036;-78
2024/03/24 12:38:17;;;;;;;1.85;0.50;;;12.60;86.90;;;;;;5048219;28;20091;-78
2024/03/24 12:40:56;;;;;;;2.20;0.63;;;12.70;86.70;;;;;;5046478;28;20086;-79
2024/03/24 12:43:26;;;;;;;1.35;0.70;;;12.70;83.70;;;;;;5046324;28;20635;-77
2024/03/24 12:45:54;;;;;;;1.02;0.30;;;12.70;85.60;;;;;;5050557;28;20629;-80
2024/03/24 12:48:29;;;;;;;1.55;0.40;;;12.80;84.40;;;;;;5049547;28;20098;-80
2024/03/24 12:50:58;;;;;;;0.77;0.30;;;12.80;83.70;;;;;;5047298;28;21174;-78